sensor_id;sensor_type;location;lat;lon;timestamp;P1;durP1;ratioP1;P2;durP2;ratioP2
16969;SDS011;8601;48.718;8.992;2024-01-30T00:00:28;8.03;;;7.23;;
16969;SDS011;8601;48.718;8.992;2024-01-30T00:02:55;7.77;;;6.97;;
16969;SDS011;8601;48.718;8.992;2024-01-30T00:05:22;8.63;;;7.23;;
16969;SDS011;8601;48.718;8.992;2024-01-30T00:07:49;9.53;;;7.30;;
16969;SDS011;8601;48.718;8.992;2024-01-30T00:10:18;8.73;;;7.50;;
16969;SDS011;8601;48.718;8.992;2024-01-30T00:12:45;8.07;;;7.27;;
16969;SDS011;8601;48.718;8.992;2024-01-30T00:15:12;8.30;;;7.33;;
16969;SDS011;8601;48.718;8.992;2024-01-30T00:17:40;8.27;;;7.20;;
16969;SDS011;8601;48.718;8.992;2024-01-30T00:20:07;9.00;;;7.30;;
16969;SDS011;8601;48.718;8.992;2024-01-30T00:22:34;9.13;;;7.30;;
16969;SDS011;8601;48.718;8.992;2024-01-30T00:25:01;7.33;;;6.63;;
16969;SDS011;8601;48.718;8.992;2024-01-30T00:27:29;8.77;;;7.87;;
16969;SDS011;8601;48.718;8.992;2024-01-30T00:29:56;8.03;;;7.03;;
16969;SDS011;8601;48.718;8.992;2024-01-30T00:32:23;8.17;;;7.17;;
16969;SDS011;8601;48.718;8.992;2024-01-30T00:34:49;8.97;;;7.30;;
16969;SDS011;8601;48.718;8.992;2024-01-30T00:37:16;8.00;;;7.07;;
16969;SDS011;8601;48.718;8.992;2024-01-30T00:39:43;9.80;;;7.30;;
16969;SDS011;8601;48.718;8.992;2024-01-30T00:42:10;8.50;;;7.60;;
16969;SDS011;8601;48.718;8.992;2024-01-30T00:44:38;9.13;;;7.53;;
16969;SDS011;8601;48.718;8.992;2024-01-30T00:47:05;10.73;;;7.33;;
16969;SDS011;8601;48.718;8.992;2024-01-30T00:49:32;9.17;;;7.43;;
16969;SDS011;8601;48.718;8.992;2024-01-30T00:51:59;8.77;;;7.43;;
16969;SDS011;8601;48.718;8.992;2024-01-30T00:54:26;10.73;;;7.43;;
16969;SDS011;8601;48.718;8.992;2024-01-30T00:56:53;8.40;;;7.43;;
16969;SDS011;8601;48.718;8.992;2024-01-30T00:59:19;9.70;;;7.57;;
16969;SDS011;8601;48.718;8.992;2024-01-30T01:01:48;10.50;;;7.50;;
16969;SDS011;8601;48.718;8.992;2024-01-30T01:04:14;7.67;;;6.47;;
16969;SDS011;8601;48.718;8.992;2024-01-30T01:06:41;8.43;;;7.53;;
16969;SDS011;8601;48.718;8.992;2024-01-30T01:09:09;10.63;;;7.50;;
16969;SDS011;8601;48.718;8.992;2024-01-30T01:11:36;9.00;;;7.17;;
16969;SDS011;8601;48.718;8.992;2024-01-30T01:14:04;8.37;;;7.20;;
16969;SDS011;8601;48.718;8.992;2024-01-30T01:16:30;7.67;;;6.77;;
16969;SDS011;8601;48.718;8.992;2024-01-30T01:18:58;9.37;;;7.43;;
16969;SDS011;8601;48.718;8.992;2024-01-30T01:21:25;8.90;;;7.10;;
16969;SDS011;8601;48.718;8.992;2024-01-30T01:23:52;8.33;;;6.83;;
16969;SDS011;8601;48.718;8.992;2024-01-30T01:26:19;7.50;;;6.63;;
16969;SDS011;8601;48.718;8.992;2024-01-30T01:28:46;9.27;;;7.23;;
16969;SDS011;8601;48.718;8.992;2024-01-30T01:31:13;8.57;;;7.63;;
16969;SDS011;8601;48.718;8.992;2024-01-30T01:33:40;9.73;;;6.67;;
16969;SDS011;8601;48.718;8.992;2024-01-30T01:36:08;10.23;;;7.33;;
16969;SDS011;8601;48.718;8.992;2024-01-30T01:38:35;9.97;;;7.10;;
16969;SDS011;8601;48.718;8.992;2024-01-30T01:41:02;9.33;;;7.10;;
16969;SDS011;8601;48.718;8.992;2024-01-30T01:43:29;7.57;;;6.77;;
16969;SDS011;8601;48.718;8.992;2024-01-30T01:45:56;8.00;;;6.73;;
16969;SDS011;8601;48.718;8.992;2024-01-30T01:48:23;10.17;;;6.83;;
16969;SDS011;8601;48.718;8.992;2024-01-30T01:50:49;6.70;;;6.00;;
16969;SDS011;8601;48.718;8.992;2024-01-30T01:53:19;8.33;;;6.47;;
16969;SDS011;8601;48.718;8.992;2024-01-30T01:55:46;9.00;;;6.57;;
16969;SDS011;8601;48.718;8.992;2024-01-30T01:58:14;9.27;;;6.60;;
16969;SDS011;8601;48.718;8.992;2024-01-30T02:00:41;8.97;;;6.90;;
16969;SDS011;8601;48.718;8.992;2024-01-30T02:03:09;7.60;;;6.67;;
16969;SDS011;8601;48.718;8.992;2024-01-30T02:05:37;8.63;;;6.63;;
16969;SDS011;8601;48.718;8.992;2024-01-30T02:08:05;9.53;;;6.03;;
16969;SDS011;8601;48.718;8.992;2024-01-30T02:10:34;7.33;;;5.73;;
16969;SDS011;8601;48.718;8.992;2024-01-30T02:13:00;9.00;;;6.33;;
16969;SDS011;8601;48.718;8.992;2024-01-30T02:15:27;7.03;;;6.30;;
16969;SDS011;8601;48.718;8.992;2024-01-30T02:17:55;7.77;;;6.17;;
16969;SDS011;8601;48.718;8.992;2024-01-30T02:20:22;8.27;;;6.07;;
16969;SDS011;8601;48.718;8.992;2024-01-30T02:22:52;7.43;;;6.63;;
16969;SDS011;8601;48.718;8.992;2024-01-30T02:25:20;8.80;;;7.00;;
16969;SDS011;8601;48.718;8.992;2024-01-30T02:27:55;10.47;;;7.40;;
16969;SDS011;8601;48.718;8.992;2024-01-30T02:30:22;8.27;;;7.00;;
16969;SDS011;8601;48.718;8.992;2024-01-30T02:32:49;9.90;;;6.80;;
16969;SDS011;8601;48.718;8.992;2024-01-30T02:35:16;8.33;;;7.20;;
16969;SDS011;8601;48.718;8.992;2024-01-30T02:37:42;7.13;;;6.27;;
16969;SDS011;8601;48.718;8.992;2024-01-30T02:40:11;8.13;;;7.13;;
16969;SDS011;8601;48.718;8.992;2024-01-30T02:42:38;6.90;;;5.80;;
16969;SDS011;8601;48.718;8.992;2024-01-30T02:45:07;7.50;;;6.30;;
16969;SDS011;8601;48.718;8.992;2024-01-30T02:47:34;7.13;;;6.27;;
16969;SDS011;8601;48.718;8.992;2024-01-30T02:50:01;7.20;;;6.50;;
16969;SDS011;8601;48.718;8.992;2024-01-30T02:52:28;8.20;;;6.17;;
16969;SDS011;8601;48.718;8.992;2024-01-30T02:54:55;7.30;;;6.57;;
16969;SDS011;8601;48.718;8.992;2024-01-30T02:57:23;7.03;;;5.97;;
16969;SDS011;8601;48.718;8.992;2024-01-30T02:59:50;7.00;;;6.30;;
16969;SDS011;8601;48.718;8.992;2024-01-30T03:02:17;10.80;;;6.83;;
16969;SDS011;8601;48.718;8.992;2024-01-30T03:04:44;7.43;;;6.17;;
16969;SDS011;8601;48.718;8.992;2024-01-30T03:07:11;7.00;;;6.30;;
16969;SDS011;8601;48.718;8.992;2024-01-30T03:09:38;8.10;;;6.40;;
16969;SDS011;8601;48.718;8.992;2024-01-30T03:12:07;8.13;;;6.57;;
16969;SDS011;8601;48.718;8.992;2024-01-30T03:14:35;7.23;;;6.37;;
16969;SDS011;8601;48.718;8.992;2024-01-30T03:17:02;7.30;;;6.50;;
16969;SDS011;8601;48.718;8.992;2024-01-30T03:19:29;6.80;;;6.03;;
16969;SDS011;8601;48.718;8.992;2024-01-30T03:21:56;7.97;;;6.43;;
16969;SDS011;8601;48.718;8.992;2024-01-30T03:24:23;8.80;;;6.80;;
16969;SDS011;8601;48.718;8.992;2024-01-30T03:26:50;8.17;;;6.00;;
16969;SDS011;8601;48.718;8.992;2024-01-30T03:29:16;6.63;;;6.03;;
16969;SDS011;8601;48.718;8.992;2024-01-30T03:31:45;7.63;;;6.83;;
16969;SDS011;8601;48.718;8.992;2024-01-30T03:34:11;8.07;;;6.27;;
16969;SDS011;8601;48.718;8.992;2024-01-30T03:36:38;8.57;;;6.20;;
16969;SDS011;8601;48.718;8.992;2024-01-30T03:39:05;7.53;;;6.60;;
16969;SDS011;8601;48.718;8.992;2024-01-30T03:41:32;7.70;;;6.57;;
16969;SDS011;8601;48.718;8.992;2024-01-30T03:43:59;10.20;;;6.37;;
16969;SDS011;8601;48.718;8.992;2024-01-30T03:46:26;6.70;;;6.00;;
16969;SDS011;8601;48.718;8.992;2024-01-30T03:48:54;9.07;;;6.57;;
16969;SDS011;8601;48.718;8.992;2024-01-30T03:51:20;7.77;;;6.97;;
16969;SDS011;8601;48.718;8.992;2024-01-30T03:53:47;6.60;;;5.93;;
16969;SDS011;8601;48.718;8.992;2024-01-30T03:56:14;7.33;;;6.60;;
16969;SDS011;8601;48.718;8.992;2024-01-30T03:58:41;7.30;;;6.30;;
16969;SDS011;8601;48.718;8.992;2024-01-30T04:01:07;8.17;;;6.47;;
16969;SDS011;8601;48.718;8.992;2024-01-30T04:03:39;6.60;;;5.83;;
16969;SDS011;8601;48.718;8.992;2024-01-30T04:06:08;7.40;;;6.10;;
16969;SDS011;8601;48.718;8.992;2024-01-30T04:08:34;7.27;;;5.63;;
16969;SDS011;8601;48.718;8.992;2024-01-30T04:11:03;7.33;;;5.70;;
16969;SDS011;8601;48.718;8.992;2024-01-30T04:13:30;6.67;;;5.67;;
16969;SDS011;8601;48.718;8.992;2024-01-30T04:15:58;7.60;;;5.83;;
16969;SDS011;8601;48.718;8.992;2024-01-30T04:18:26;8.70;;;6.37;;
16969;SDS011;8601;48.718;8.992;2024-01-30T04:20:53;7.73;;;6.37;;
16969;SDS011;8601;48.718;8.992;2024-01-30T04:23:21;9.00;;;6.33;;
16969;SDS011;8601;48.718;8.992;2024-01-30T04:25:48;7.00;;;6.30;;
16969;SDS011;8601;48.718;8.992;2024-01-30T04:28:15;6.50;;;5.67;;
16969;SDS011;8601;48.718;8.992;2024-01-30T04:30:42;6.90;;;5.80;;
16969;SDS011;8601;48.718;8.992;2024-01-30T04:33:10;8.13;;;6.50;;
16969;SDS011;8601;48.718;8.992;2024-01-30T04:35:37;6.83;;;5.73;;
16969;SDS011;8601;48.718;8.992;2024-01-30T04:38:04;9.07;;;6.50;;
16969;SDS011;8601;48.718;8.992;2024-01-30T04:40:32;6.47;;;5.80;;
16969;SDS011;8601;48.718;8.992;2024-01-30T04:42:59;8.37;;;6.10;;
16969;SDS011;8601;48.718;8.992;2024-01-30T04:45:26;8.77;;;6.70;;
16969;SDS011;8601;48.718;8.992;2024-01-30T04:47:53;9.20;;;5.93;;
16969;SDS011;8601;48.718;8.992;2024-01-30T04:50:20;7.07;;;6.30;;
16969;SDS011;8601;48.718;8.992;2024-01-30T04:52:46;6.90;;;6.10;;
16969;SDS011;8601;48.718;8.992;2024-01-30T04:55:13;8.20;;;6.07;;
16969;SDS011;8601;48.718;8.992;2024-01-30T04:57:42;7.93;;;6.53;;
16969;SDS011;8601;48.718;8.992;2024-01-30T05:00:09;7.10;;;6.40;;
16969;SDS011;8601;48.718;8.992;2024-01-30T05:02:36;8.40;;;6.37;;
16969;SDS011;8601;48.718;8.992;2024-01-30T05:05:03;7.57;;;6.33;;
16969;SDS011;8601;48.718;8.992;2024-01-30T05:07:31;9.07;;;6.73;;
16969;SDS011;8601;48.718;8.992;2024-01-30T05:09:58;7.73;;;6.63;;
16969;SDS011;8601;48.718;8.992;2024-01-30T05:12:24;6.80;;;6.10;;
16969;SDS011;8601;48.718;8.992;2024-01-30T05:14:53;6.90;;;6.20;;
16969;SDS011;8601;48.718;8.992;2024-01-30T05:17:20;6.73;;;6.10;;
16969;SDS011;8601;48.718;8.992;2024-01-30T05:19:47;9.30;;;6.50;;
16969;SDS011;8601;48.718;8.992;2024-01-30T05:22:13;6.60;;;5.60;;
16969;SDS011;8601;48.718;8.992;2024-01-30T05:24:42;7.40;;;6.70;;
16969;SDS011;8601;48.718;8.992;2024-01-30T05:27:09;7.93;;;6.97;;
16969;SDS011;8601;48.718;8.992;2024-01-30T05:29:38;7.90;;;6.60;;
16969;SDS011;8601;48.718;8.992;2024-01-30T05:32:06;6.53;;;5.90;;
16969;SDS011;8601;48.718;8.992;2024-01-30T05:34:33;6.53;;;5.53;;
16969;SDS011;8601;48.718;8.992;2024-01-30T05:37:01;7.20;;;6.00;;
16969;SDS011;8601;48.718;8.992;2024-01-30T05:39:29;7.60;;;6.10;;
16969;SDS011;8601;48.718;8.992;2024-01-30T05:41:58;7.37;;;6.53;;
16969;SDS011;8601;48.718;8.992;2024-01-30T05:44:24;7.60;;;5.93;;
16969;SDS011;8601;48.718;8.992;2024-01-30T05:46:52;6.70;;;6.00;;
16969;SDS011;8601;48.718;8.992;2024-01-30T05:49:21;8.70;;;6.03;;
16969;SDS011;8601;48.718;8.992;2024-01-30T05:51:47;7.57;;;5.87;;
16969;SDS011;8601;48.718;8.992;2024-01-30T05:54:14;6.43;;;5.77;;
16969;SDS011;8601;48.718;8.992;2024-01-30T05:56:41;8.13;;;6.30;;
16969;SDS011;8601;48.718;8.992;2024-01-30T05:59:09;7.33;;;6.27;;
16969;SDS011;8601;48.718;8.992;2024-01-30T06:01:36;9.17;;;5.93;;
16969;SDS011;8601;48.718;8.992;2024-01-30T06:04:03;8.27;;;6.87;;
16969;SDS011;8601;48.718;8.992;2024-01-30T06:06:31;8.83;;;6.27;;
16969;SDS011;8601;48.718;8.992;2024-01-30T06:08:58;9.43;;;5.93;;
16969;SDS011;8601;48.718;8.992;2024-01-30T06:11:25;8.70;;;6.53;;
16969;SDS011;8601;48.718;8.992;2024-01-30T06:13:52;7.33;;;5.50;;
16969;SDS011;8601;48.718;8.992;2024-01-30T06:16:19;8.07;;;6.03;;
16969;SDS011;8601;48.718;8.992;2024-01-30T06:18:46;7.73;;;5.70;;
16969;SDS011;8601;48.718;8.992;2024-01-30T06:21:13;7.33;;;5.80;;
16969;SDS011;8601;48.718;8.992;2024-01-30T06:23:41;9.10;;;6.47;;
16969;SDS011;8601;48.718;8.992;2024-01-30T06:26:08;7.10;;;5.87;;
16969;SDS011;8601;48.718;8.992;2024-01-30T06:28:35;8.80;;;6.43;;
16969;SDS011;8601;48.718;8.992;2024-01-30T06:31:02;8.47;;;5.77;;
16969;SDS011;8601;48.718;8.992;2024-01-30T06:33:30;9.00;;;6.43;;
16969;SDS011;8601;48.718;8.992;2024-01-30T06:35:58;9.43;;;6.07;;
16969;SDS011;8601;48.718;8.992;2024-01-30T06:38:25;7.90;;;5.90;;
16969;SDS011;8601;48.718;8.992;2024-01-30T06:40:53;8.83;;;5.57;;
16969;SDS011;8601;48.718;8.992;2024-01-30T06:43:20;7.80;;;5.93;;
16969;SDS011;8601;48.718;8.992;2024-01-30T06:45:48;6.77;;;5.63;;
16969;SDS011;8601;48.718;8.992;2024-01-30T06:48:15;6.87;;;5.77;;
16969;SDS011;8601;48.718;8.992;2024-01-30T06:50:42;7.63;;;6.20;;
16969;SDS011;8601;48.718;8.992;2024-01-30T06:53:09;8.20;;;5.67;;
16969;SDS011;8601;48.718;8.992;2024-01-30T06:55:36;7.03;;;6.00;;
16969;SDS011;8601;48.718;8.992;2024-01-30T06:58:04;8.23;;;6.73;;
16969;SDS011;8601;48.718;8.992;2024-01-30T07:00:31;7.90;;;6.03;;
16969;SDS011;8601;48.718;8.992;2024-01-30T07:02:58;7.53;;;6.23;;
16969;SDS011;8601;48.718;8.992;2024-01-30T07:05:25;6.77;;;5.63;;
16969;SDS011;8601;48.718;8.992;2024-01-30T07:07:53;7.23;;;5.50;;
16969;SDS011;8601;48.718;8.992;2024-01-30T07:10:20;8.20;;;5.63;;
16969;SDS011;8601;48.718;8.992;2024-01-30T07:12:47;6.53;;;5.80;;
16969;SDS011;8601;48.718;8.992;2024-01-30T07:15:15;7.50;;;6.50;;
16969;SDS011;8601;48.718;8.992;2024-01-30T07:17:45;6.57;;;5.70;;
16969;SDS011;8601;48.718;8.992;2024-01-30T07:20:12;5.87;;;5.27;;
16969;SDS011;8601;48.718;8.992;2024-01-30T07:22:39;7.00;;;6.30;;
16969;SDS011;8601;48.718;8.992;2024-01-30T07:25:06;6.83;;;5.77;;
16969;SDS011;8601;48.718;8.992;2024-01-30T07:27:34;6.93;;;5.50;;
16969;SDS011;8601;48.718;8.992;2024-01-30T07:30:01;8.63;;;4.97;;
16969;SDS011;8601;48.718;8.992;2024-01-30T07:32:30;5.20;;;4.70;;
16969;SDS011;8601;48.718;8.992;2024-01-30T07:34:57;5.97;;;5.37;;
16969;SDS011;8601;48.718;8.992;2024-01-30T07:37:24;8.00;;;5.50;;
16969;SDS011;8601;48.718;8.992;2024-01-30T07:39:51;5.53;;;5.03;;
16969;SDS011;8601;48.718;8.992;2024-01-30T07:42:18;6.33;;;5.40;;
16969;SDS011;8601;48.718;8.992;2024-01-30T07:44:45;8.77;;;5.47;;
16969;SDS011;8601;48.718;8.992;2024-01-30T07:47:12;7.63;;;5.27;;
16969;SDS011;8601;48.718;8.992;2024-01-30T07:49:40;8.33;;;5.57;;
16969;SDS011;8601;48.718;8.992;2024-01-30T07:52:07;8.97;;;6.10;;
16969;SDS011;8601;48.718;8.992;2024-01-30T07:54:34;6.40;;;5.60;;
16969;SDS011;8601;48.718;8.992;2024-01-30T07:57:06;6.33;;;5.73;;
16969;SDS011;8601;48.718;8.992;2024-01-30T07:59:33;7.57;;;5.77;;
16969;SDS011;8601;48.718;8.992;2024-01-30T08:02:00;9.33;;;5.53;;
16969;SDS011;8601;48.718;8.992;2024-01-30T08:04:27;6.97;;;5.50;;
16969;SDS011;8601;48.718;8.992;2024-01-30T08:06:55;6.90;;;5.23;;
16969;SDS011;8601;48.718;8.992;2024-01-30T08:09:22;6.50;;;5.40;;
16969;SDS011;8601;48.718;8.992;2024-01-30T08:11:49;7.27;;;5.30;;
16969;SDS011;8601;48.718;8.992;2024-01-30T08:14:15;6.97;;;5.50;;
16969;SDS011;8601;48.718;8.992;2024-01-30T08:16:42;7.73;;;5.70;;
16969;SDS011;8601;48.718;8.992;2024-01-30T08:19:09;11.37;;;5.93;;
16969;SDS011;8601;48.718;8.992;2024-01-30T08:21:36;6.60;;;5.73;;
16969;SDS011;8601;48.718;8.992;2024-01-30T08:24:04;7.87;;;5.97;;
16969;SDS011;8601;48.718;8.992;2024-01-30T08:26:33;8.27;;;5.60;;
16969;SDS011;8601;48.718;8.992;2024-01-30T08:29:00;7.50;;;5.83;;
16969;SDS011;8601;48.718;8.992;2024-01-30T08:31:28;6.57;;;5.33;;
16969;SDS011;8601;48.718;8.992;2024-01-30T08:33:54;6.43;;;5.03;;
16969;SDS011;8601;48.718;8.992;2024-01-30T08:36:21;6.40;;;5.37;;
16969;SDS011;8601;48.718;8.992;2024-01-30T08:38:48;7.63;;;5.57;;
16969;SDS011;8601;48.718;8.992;2024-01-30T08:41:17;6.43;;;5.60;;
16969;SDS011;8601;48.718;8.992;2024-01-30T08:43:43;7.50;;;6.70;;
16969;SDS011;8601;48.718;8.992;2024-01-30T08:46:10;6.10;;;5.43;;
16969;SDS011;8601;48.718;8.992;2024-01-30T08:48:38;6.80;;;6.00;;
16969;SDS011;8601;48.718;8.992;2024-01-30T08:51:06;7.43;;;5.97;;
16969;SDS011;8601;48.718;8.992;2024-01-30T08:53:33;8.10;;;6.33;;
16969;SDS011;8601;48.718;8.992;2024-01-30T08:56:01;7.17;;;6.47;;
16969;SDS011;8601;48.718;8.992;2024-01-30T08:58:29;10.00;;;6.67;;
16969;SDS011;8601;48.718;8.992;2024-01-30T09:00:56;7.57;;;6.40;;
16969;SDS011;8601;48.718;8.992;2024-01-30T09:03:23;6.30;;;5.70;;
16969;SDS011;8601;48.718;8.992;2024-01-30T09:05:50;7.27;;;6.57;;
16969;SDS011;8601;48.718;8.992;2024-01-30T09:08:16;9.93;;;7.53;;
16969;SDS011;8601;48.718;8.992;2024-01-30T09:10:44;10.83;;;7.57;;
16969;SDS011;8601;48.718;8.992;2024-01-30T09:13:10;7.30;;;6.50;;
16969;SDS011;8601;48.718;8.992;2024-01-30T09:15:39;8.50;;;6.63;;
16969;SDS011;8601;48.718;8.992;2024-01-30T09:18:06;7.43;;;6.60;;
16969;SDS011;8601;48.718;8.992;2024-01-30T09:20:33;8.33;;;6.20;;
16969;SDS011;8601;48.718;8.992;2024-01-30T09:22:59;7.47;;;6.37;;
16969;SDS011;8601;48.718;8.992;2024-01-30T09:25:26;7.10;;;6.37;;
16969;SDS011;8601;48.718;8.992;2024-01-30T09:27:53;6.70;;;6.10;;
16969;SDS011;8601;48.718;8.992;2024-01-30T09:30:20;7.77;;;6.00;;
16969;SDS011;8601;48.718;8.992;2024-01-30T09:32:48;6.73;;;5.83;;
16969;SDS011;8601;48.718;8.992;2024-01-30T09:35:15;8.57;;;6.77;;
16969;SDS011;8601;48.718;8.992;2024-01-30T09:37:42;7.03;;;6.33;;
16969;SDS011;8601;48.718;8.992;2024-01-30T09:40:08;8.37;;;5.73;;
16969;SDS011;8601;48.718;8.992;2024-01-30T09:42:36;7.90;;;6.20;;
16969;SDS011;8601;48.718;8.992;2024-01-30T09:45:03;7.10;;;6.40;;
16969;SDS011;8601;48.718;8.992;2024-01-30T09:47:31;9.00;;;6.40;;
16969;SDS011;8601;48.718;8.992;2024-01-30T09:50:00;8.93;;;6.60;;
16969;SDS011;8601;48.718;8.992;2024-01-30T09:52:31;6.90;;;6.17;;
16969;SDS011;8601;48.718;8.992;2024-01-30T09:54:58;7.37;;;6.57;;
16969;SDS011;8601;48.718;8.992;2024-01-30T09:57:26;6.87;;;6.17;;
16969;SDS011;8601;48.718;8.992;2024-01-30T09:59:53;6.77;;;6.10;;
16969;SDS011;8601;48.718;8.992;2024-01-30T10:02:20;6.57;;;5.47;;
16969;SDS011;8601;48.718;8.992;2024-01-30T10:04:47;6.47;;;5.70;;
16969;SDS011;8601;48.718;8.992;2024-01-30T10:07:17;5.90;;;5.07;;
16969;SDS011;8601;48.718;8.992;2024-01-30T10:09:44;6.37;;;5.47;;
16969;SDS011;8601;48.718;8.992;2024-01-30T10:12:11;5.47;;;4.80;;
16969;SDS011;8601;48.718;8.992;2024-01-30T10:14:38;6.93;;;6.23;;
16969;SDS011;8601;48.718;8.992;2024-01-30T10:17:07;6.03;;;4.83;;
16969;SDS011;8601;48.718;8.992;2024-01-30T10:19:34;6.43;;;5.17;;
16969;SDS011;8601;48.718;8.992;2024-01-30T10:22:01;7.33;;;5.10;;
16969;SDS011;8601;48.718;8.992;2024-01-30T10:24:30;6.67;;;4.73;;
16969;SDS011;8601;48.718;8.992;2024-01-30T10:26:57;5.50;;;4.83;;
16969;SDS011;8601;48.718;8.992;2024-01-30T10:29:26;9.63;;;4.37;;
16969;SDS011;8601;48.718;8.992;2024-01-30T10:31:59;5.20;;;4.40;;
16969;SDS011;8601;48.718;8.992;2024-01-30T10:34:27;6.57;;;4.50;;
16969;SDS011;8601;48.718;8.992;2024-01-30T10:36:57;7.17;;;4.43;;
16969;SDS011;8601;48.718;8.992;2024-01-30T10:39:28;5.20;;;4.67;;
16969;SDS011;8601;48.718;8.992;2024-01-30T10:41:59;5.63;;;4.87;;
16969;SDS011;8601;48.718;8.992;2024-01-30T10:44:33;5.97;;;4.40;;
16969;SDS011;8601;48.718;8.992;2024-01-30T10:47:06;7.53;;;3.90;;
16969;SDS011;8601;48.718;8.992;2024-01-30T10:49:39;6.83;;;4.43;;
16969;SDS011;8601;48.718;8.992;2024-01-30T10:52:07;10.47;;;7.47;;
16969;SDS011;8601;48.718;8.992;2024-01-30T10:54:36;6.67;;;4.37;;
16969;SDS011;8601;48.718;8.992;2024-01-30T10:57:06;7.10;;;5.03;;
16969;SDS011;8601;48.718;8.992;2024-01-30T10:59:35;5.70;;;4.30;;
16969;SDS011;8601;48.718;8.992;2024-01-30T11:02:02;6.57;;;4.70;;
16969;SDS011;8601;48.718;8.992;2024-01-30T11:04:35;8.43;;;5.07;;
16969;SDS011;8601;48.718;8.992;2024-01-30T11:07:02;11.90;;;5.77;;
16969;SDS011;8601;48.718;8.992;2024-01-30T11:09:47;8.37;;;4.43;;
16969;SDS011;8601;48.718;8.992;2024-01-30T11:12:14;7.90;;;4.30;;
16969;SDS011;8601;48.718;8.992;2024-01-30T11:14:41;5.13;;;3.90;;
16969;SDS011;8601;48.718;8.992;2024-01-30T11:17:09;3.80;;;3.30;;
16969;SDS011;8601;48.718;8.992;2024-01-30T11:19:37;4.67;;;3.83;;
16969;SDS011;8601;48.718;8.992;2024-01-30T11:22:06;6.90;;;3.83;;
16969;SDS011;8601;48.718;8.992;2024-01-30T11:24:36;5.87;;;4.33;;
16969;SDS011;8601;48.718;8.992;2024-01-30T11:27:09;4.30;;;3.43;;
16969;SDS011;8601;48.718;8.992;2024-01-30T11:29:36;4.63;;;3.40;;
16969;SDS011;8601;48.718;8.992;2024-01-30T11:32:02;4.17;;;3.53;;
16969;SDS011;8601;48.718;8.992;2024-01-30T11:34:30;3.73;;;3.23;;
16969;SDS011;8601;48.718;8.992;2024-01-30T11:36:59;6.27;;;3.33;;
16969;SDS011;8601;48.718;8.992;2024-01-30T11:39:29;5.27;;;3.30;;
16969;SDS011;8601;48.718;8.992;2024-01-30T11:41:56;5.67;;;3.37;;
16969;SDS011;8601;48.718;8.992;2024-01-30T11:44:26;6.83;;;2.90;;
16969;SDS011;8601;48.718;8.992;2024-01-30T11:46:53;4.50;;;3.23;;
16969;SDS011;8601;48.718;8.992;2024-01-30T11:49:19;3.70;;;3.40;;
16969;SDS011;8601;48.718;8.992;2024-01-30T11:51:46;4.63;;;3.03;;
16969;SDS011;8601;48.718;8.992;2024-01-30T11:54:14;6.87;;;3.20;;
16969;SDS011;8601;48.718;8.992;2024-01-30T11:56:41;5.33;;;2.70;;
16969;SDS011;8601;48.718;8.992;2024-01-30T11:59:09;4.53;;;3.10;;
16969;SDS011;8601;48.718;8.992;2024-01-30T12:01:37;5.87;;;3.23;;
16969;SDS011;8601;48.718;8.992;2024-01-30T12:04:04;3.20;;;2.90;;
16969;SDS011;8601;48.718;8.992;2024-01-30T12:06:34;4.60;;;2.93;;
16969;SDS011;8601;48.718;8.992;2024-01-30T12:09:01;4.33;;;3.33;;
16969;SDS011;8601;48.718;8.992;2024-01-30T12:11:30;3.83;;;3.10;;
16969;SDS011;8601;48.718;8.992;2024-01-30T12:13:57;6.80;;;3.90;;
16969;SDS011;8601;48.718;8.992;2024-01-30T12:16:24;4.73;;;3.57;;
16969;SDS011;8601;48.718;8.992;2024-01-30T12:19:00;4.47;;;3.10;;
16969;SDS011;8601;48.718;8.992;2024-01-30T12:21:28;4.10;;;3.10;;
16969;SDS011;8601;48.718;8.992;2024-01-30T12:23:55;7.50;;;3.43;;
16969;SDS011;8601;48.718;8.992;2024-01-30T12:26:23;3.77;;;3.07;;
16969;SDS011;8601;48.718;8.992;2024-01-30T12:28:53;3.63;;;2.97;;
16969;SDS011;8601;48.718;8.992;2024-01-30T12:31:25;6.10;;;3.27;;
16969;SDS011;8601;48.718;8.992;2024-01-30T12:33:52;3.50;;;3.20;;
16969;SDS011;8601;48.718;8.992;2024-01-30T12:36:21;6.57;;;3.10;;
16969;SDS011;8601;48.718;8.992;2024-01-30T12:38:48;3.20;;;2.90;;
16969;SDS011;8601;48.718;8.992;2024-01-30T12:41:29;2.97;;;2.57;;
16969;SDS011;8601;48.718;8.992;2024-01-30T12:43:57;7.97;;;3.10;;
16969;SDS011;8601;48.718;8.992;2024-01-30T12:46:25;6.43;;;2.77;;
16969;SDS011;8601;48.718;8.992;2024-01-30T12:48:54;4.20;;;3.17;;
16969;SDS011;8601;48.718;8.992;2024-01-30T12:51:22;3.27;;;2.70;;
16969;SDS011;8601;48.718;8.992;2024-01-30T12:53:49;3.03;;;2.73;;
16969;SDS011;8601;48.718;8.992;2024-01-30T12:56:17;2.83;;;2.63;;
16969;SDS011;8601;48.718;8.992;2024-01-30T12:58:44;3.30;;;2.70;;
16969;SDS011;8601;48.718;8.992;2024-01-30T13:01:10;3.27;;;2.80;;
16969;SDS011;8601;48.718;8.992;2024-01-30T13:03:37;6.87;;;3.63;;
16969;SDS011;8601;48.718;8.992;2024-01-30T13:06:04;3.47;;;2.90;;
16969;SDS011;8601;48.718;8.992;2024-01-30T13:08:32;4.23;;;2.90;;
16969;SDS011;8601;48.718;8.992;2024-01-30T13:10:59;5.07;;;2.87;;
16969;SDS011;8601;48.718;8.992;2024-01-30T13:13:26;4.07;;;2.97;;
16969;SDS011;8601;48.718;8.992;2024-01-30T13:15:53;3.50;;;2.60;;
16969;SDS011;8601;48.718;8.992;2024-01-30T13:18:20;6.20;;;2.90;;
16969;SDS011;8601;48.718;8.992;2024-01-30T13:20:46;3.27;;;2.93;;
16969;SDS011;8601;48.718;8.992;2024-01-30T13:23:13;3.20;;;2.90;;
16969;SDS011;8601;48.718;8.992;2024-01-30T13:25:42;3.30;;;3.00;;
16969;SDS011;8601;48.718;8.992;2024-01-30T13:28:08;4.53;;;3.20;;
16969;SDS011;8601;48.718;8.992;2024-01-30T13:30:35;4.77;;;3.20;;
16969;SDS011;8601;48.718;8.992;2024-01-30T13:33:02;4.83;;;3.37;;
16969;SDS011;8601;48.718;8.992;2024-01-30T13:35:29;4.03;;;3.00;;
16969;SDS011;8601;48.718;8.992;2024-01-30T13:37:56;3.33;;;2.90;;
16969;SDS011;8601;48.718;8.992;2024-01-30T13:40:24;4.63;;;3.07;;
16969;SDS011;8601;48.718;8.992;2024-01-30T13:42:53;3.43;;;2.87;;
16969;SDS011;8601;48.718;8.992;2024-01-30T13:45:19;4.53;;;2.77;;
16969;SDS011;8601;48.718;8.992;2024-01-30T13:47:46;3.67;;;3.10;;
16969;SDS011;8601;48.718;8.992;2024-01-30T13:50:13;4.07;;;2.90;;
16969;SDS011;8601;48.718;8.992;2024-01-30T13:52:41;2.50;;;2.30;;
16969;SDS011;8601;48.718;8.992;2024-01-30T13:55:08;3.93;;;2.90;;
16969;SDS011;8601;48.718;8.992;2024-01-30T13:57:35;3.20;;;2.50;;
16969;SDS011;8601;48.718;8.992;2024-01-30T14:00:05;2.80;;;2.50;;
16969;SDS011;8601;48.718;8.992;2024-01-30T14:02:32;2.83;;;2.40;;
16969;SDS011;8601;48.718;8.992;2024-01-30T14:04:59;3.23;;;2.50;;
16969;SDS011;8601;48.718;8.992;2024-01-30T14:07:26;4.67;;;2.70;;
16969;SDS011;8601;48.718;8.992;2024-01-30T14:09:53;4.07;;;3.00;;
16969;SDS011;8601;48.718;8.992;2024-01-30T14:12:20;5.10;;;2.70;;
16969;SDS011;8601;48.718;8.992;2024-01-30T14:14:47;5.67;;;3.00;;
16969;SDS011;8601;48.718;8.992;2024-01-30T14:17:16;3.27;;;2.43;;
16969;SDS011;8601;48.718;8.992;2024-01-30T14:19:43;3.50;;;2.70;;
16969;SDS011;8601;48.718;8.992;2024-01-30T14:22:10;5.23;;;3.27;;
16969;SDS011;8601;48.718;8.992;2024-01-30T14:24:37;3.53;;;2.57;;
16969;SDS011;8601;48.718;8.992;2024-01-30T14:27:04;2.67;;;2.20;;
16969;SDS011;8601;48.718;8.992;2024-01-30T14:29:32;2.93;;;2.60;;
16969;SDS011;8601;48.718;8.992;2024-01-30T14:31:59;4.53;;;2.57;;
16969;SDS011;8601;48.718;8.992;2024-01-30T14:34:27;4.93;;;2.93;;
16969;SDS011;8601;48.718;8.992;2024-01-30T14:36:54;4.80;;;2.97;;
16969;SDS011;8601;48.718;8.992;2024-01-30T14:39:21;3.40;;;2.27;;
16969;SDS011;8601;48.718;8.992;2024-01-30T14:41:48;3.20;;;2.50;;
16969;SDS011;8601;48.718;8.992;2024-01-30T14:44:15;3.80;;;2.80;;
16969;SDS011;8601;48.718;8.992;2024-01-30T14:46:42;4.67;;;2.80;;
16969;SDS011;8601;48.718;8.992;2024-01-30T14:49:09;4.70;;;2.50;;
16969;SDS011;8601;48.718;8.992;2024-01-30T14:51:37;3.00;;;2.70;;
16969;SDS011;8601;48.718;8.992;2024-01-30T14:54:04;7.10;;;2.40;;
16969;SDS011;8601;48.718;8.992;2024-01-30T14:56:31;5.23;;;2.67;;
16969;SDS011;8601;48.718;8.992;2024-01-30T14:58:58;2.80;;;2.30;;
16969;SDS011;8601;48.718;8.992;2024-01-30T15:01:25;3.67;;;2.70;;